Terminal Aerodrome Forecast
Issued by NWS

Current Version | Previous Version | Text Only | Print | Product List | Glossary On
Versions: 1 2 3 4 5 6 7 8 9 10 11 12
243
FTUS45 KVEF 261123
TAFHND
TAF
KHND 261123Z 2612/2712 19012G20KT P6SM SKC
     FM262100 22015G25KT P6SM FEW250
     FM270500 22010KT P6SM SKC=

USA.gov is the U.S. government's official web portal to all federal, state and local government web resources and services.